EGGD/BRS METAR and TAF weather

Enter ICAO airport designator
Station Type Date Time Source
EGGD METAR 2018/01/22 11:50 UTC NOAA

EGGD 221150Z AUTO 27014KT 9999 OVC032 08/07 Q1014


Station Type Date Time Source
EGGD Decoded METAR 2018/01/22 11:50 UTC NOAA

Bristol / Lulsgate , United Kingdom (EGGD) 51-23N 002-43W
Jan 22, 2018 - 06:50 AM EST / 2018.01.22 1150 UTC
Wind: from the W (270 degrees) at 16 MPH (14 KT):0
Visibility: greater than 7 mile(s):0
Sky conditions: overcast
Temperature: 46 F (8 C)
Dew Point: 44 F (7 C)
Relative Humidity: 93%
Pressure (altimeter): 29.94 in. Hg (1014 hPa)
ob: EGGD 221150Z AUTO 27014KT 9999 OVC032 08/07 Q1014
cycle: 12

Station Type Date Time Source
EGGD TAF 2018/01/22 12:15 UTC NOAA

TAF EGGD 221057Z 2212/2312 28011KT 9999 SCT020
BECMG 2218/2221 19004KT PROB30
TEMPO 2218/2221 8000 -RA BKN010
BECMG 2303/2306 19014KT 8000 -RA BKN008
TEMPO 2303/2311 19018G28KT 3000 RA BKN002 PROB40
TEMPO 2303/2310 0300 FG BKN000


Example: see airport list